createdAt,value
2022-07-30T00:00:27.568Z,0.97
2022-07-30T00:02:55.828Z,1.43
2022-07-30T00:05:24.107Z,1.27
2022-07-30T00:07:52.395Z,1.20
2022-07-30T00:10:23.079Z,1.53
2022-07-30T00:12:51.410Z,2.33
2022-07-30T00:15:19.771Z,1.67
2022-07-30T00:17:49.407Z,3.00
2022-07-30T00:20:18.438Z,2.23
2022-07-30T00:22:46.933Z,5.43
2022-07-30T00:25:15.223Z,4.87
2022-07-30T00:27:45.405Z,3.27
2022-07-30T00:30:14.169Z,4.83
2022-07-30T00:32:42.425Z,3.57
2022-07-30T00:35:11.211Z,3.97
2022-07-30T00:37:39.509Z,4.40
2022-07-30T00:40:08.573Z,5.97
2022-07-30T00:42:40.376Z,4.13
2022-07-30T00:45:10.506Z,10.00
2022-07-30T00:47:38.762Z,3.57
2022-07-30T00:50:07.800Z,4.57
2022-07-30T00:52:36.195Z,3.93
2022-07-30T00:55:05.020Z,4.37
2022-07-30T00:57:33.326Z,4.23
2022-07-30T01:00:03.159Z,5.83
2022-07-30T01:02:32.838Z,2.53
2022-07-30T01:05:01.250Z,5.47
2022-07-30T01:07:29.512Z,4.30
2022-07-30T01:09:57.774Z,3.23
2022-07-30T01:12:26.815Z,2.53
2022-07-30T01:14:55.250Z,2.50
2022-07-30T01:17:23.543Z,3.00
2022-07-30T01:19:53.472Z,2.57
2022-07-30T01:22:24.100Z,3.43
2022-07-30T01:24:57.496Z,2.00
2022-07-30T01:27:27.141Z,3.17
2022-07-30T01:29:55.461Z,2.70
2022-07-30T01:32:24.357Z,4.73
2022-07-30T01:34:52.661Z,3.77
2022-07-30T01:37:20.917Z,3.10
2022-07-30T01:39:49.423Z,3.07
2022-07-30T01:42:17.730Z,2.90
2022-07-30T01:44:47.380Z,4.27
2022-07-30T01:47:15.702Z,1.73
2022-07-30T01:49:44.037Z,2.03
2022-07-30T01:52:12.311Z,3.00
2022-07-30T01:54:40.586Z,1.87
2022-07-30T01:57:08.845Z,2.13
2022-07-30T01:59:37.176Z,2.57
2022-07-30T02:02:06.867Z,1.70
2022-07-30T02:04:35.120Z,1.70
2022-07-30T02:07:05.243Z,2.07
2022-07-30T02:09:35.916Z,1.33
2022-07-30T02:12:21.752Z,1.73
2022-07-30T02:14:51.635Z,2.03
2022-07-30T02:17:23.007Z,1.70
2022-07-30T02:19:58.609Z,1.23
2022-07-30T02:22:27.888Z,2.27
2022-07-30T02:24:56.163Z,2.13
2022-07-30T02:27:25.619Z,3.20
2022-07-30T02:29:53.991Z,4.50
2022-07-30T02:32:27.767Z,4.03
2022-07-30T02:34:57.542Z,4.93
2022-07-30T02:37:39.222Z,2.50
2022-07-30T02:40:12.983Z,3.90
2022-07-30T02:42:41.260Z,3.20
2022-07-30T02:45:09.881Z,2.73
2022-07-30T02:47:39.519Z,2.67
2022-07-30T02:50:08.857Z,3.37
2022-07-30T02:52:37.141Z,2.70
2022-07-30T02:55:05.550Z,2.50
2022-07-30T02:57:33.805Z,4.47
2022-07-30T03:00:02.094Z,3.73
2022-07-30T03:02:31.630Z,4.87
2022-07-30T03:05:01.329Z,5.03
2022-07-30T03:07:29.696Z,7.13
2022-07-30T03:09:58.034Z,5.23
2022-07-30T03:12:28.226Z,7.10
2022-07-30T03:14:56.549Z,7.43
2022-07-30T03:17:24.846Z,9.93
2022-07-30T03:19:53.120Z,9.97
2022-07-30T03:22:22.807Z,8.90
2022-07-30T03:24:51.099Z,10.37
2022-07-30T03:27:19.406Z,11.50
2022-07-30T03:29:47.691Z,9.47
2022-07-30T03:32:15.953Z,10.93
2022-07-30T03:34:46.829Z,10.57
2022-07-30T03:37:15.318Z,10.17
2022-07-30T03:39:44.954Z,10.57
2022-07-30T03:42:13.244Z,11.33
2022-07-30T03:44:41.592Z,10.87
2022-07-30T03:47:09.856Z,11.73
2022-07-30T03:49:38.120Z,10.27
2022-07-30T03:52:06.710Z,12.13
2022-07-30T03:54:35.102Z,10.13
2022-07-30T03:57:05.135Z,9.40
2022-07-30T03:59:33.466Z,13.00
2022-07-30T04:02:07.481Z,10.33
2022-07-30T04:04:36.009Z,11.70
2022-07-30T04:07:04.585Z,10.27
2022-07-30T04:09:32.972Z,8.37
2022-07-30T04:12:01.268Z,10.00
2022-07-30T04:14:35.015Z,10.13
2022-07-30T04:17:04.894Z,8.57
2022-07-30T04:19:34.844Z,13.23
2022-07-30T04:22:03.126Z,8.60
2022-07-30T04:24:31.546Z,8.27
2022-07-30T04:27:00.543Z,8.10
2022-07-30T04:29:28.973Z,6.57
2022-07-30T04:31:58.626Z,8.27
2022-07-30T04:34:26.871Z,6.87
2022-07-30T04:36:55.162Z,9.97
2022-07-30T04:39:23.465Z,6.70
2022-07-30T04:41:51.743Z,8.30
2022-07-30T04:44:20.057Z,8.03
2022-07-30T04:46:48.360Z,8.43
2022-07-30T04:49:18.139Z,5.90
2022-07-30T04:51:46.766Z,8.00
2022-07-30T04:54:16.305Z,8.43
2022-07-30T04:56:53.262Z,7.13
2022-07-30T04:59:22.431Z,5.80
2022-07-30T05:01:51.167Z,5.40
2022-07-30T05:04:20.904Z,5.77
2022-07-30T05:06:49.174Z,10.37
2022-07-30T05:09:17.458Z,4.83
2022-07-30T05:11:51.367Z,6.47
2022-07-30T05:14:19.659Z,3.80
2022-07-30T05:16:47.956Z,4.97
2022-07-30T05:19:16.442Z,5.63
2022-07-30T05:21:46.098Z,5.33
2022-07-30T05:24:14.405Z,5.33
2022-07-30T05:26:42.759Z,6.60
2022-07-30T05:29:19.313Z,5.00
2022-07-30T05:31:48.420Z,3.63
2022-07-30T05:34:16.688Z,2.70
2022-07-30T05:36:46.379Z,2.83
2022-07-30T05:39:14.705Z,3.27
2022-07-30T05:41:42.955Z,3.73
2022-07-30T05:44:11.629Z,2.67
2022-07-30T05:46:39.973Z,1.90
2022-07-30T05:49:08.359Z,2.63
2022-07-30T05:51:36.699Z,1.50
2022-07-30T05:54:06.456Z,1.73
2022-07-30T05:56:34.706Z,2.20
2022-07-30T05:59:02.979Z,2.93
2022-07-30T06:01:31.301Z,3.40
2022-07-30T06:03:59.708Z,4.10
2022-07-30T06:06:28.028Z,1.30
2022-07-30T06:08:56.288Z,1.50
2022-07-30T06:11:25.944Z,2.73
2022-07-30T06:13:54.255Z,3.40
2022-07-30T06:16:22.668Z,1.97
2022-07-30T06:18:51.116Z,1.47
2022-07-30T06:21:19.411Z,1.80
2022-07-30T06:23:47.698Z,3.00
2022-07-30T06:26:15.949Z,1.10
2022-07-30T06:28:45.622Z,1.50
2022-07-30T06:31:14.903Z,1.30
2022-07-30T06:33:43.464Z,2.67
2022-07-30T06:36:13.781Z,1.37
2022-07-30T06:38:42.563Z,0.77
2022-07-30T06:41:11.297Z,0.77
2022-07-30T06:43:39.645Z,0.90
2022-07-30T06:46:09.391Z,1.10
2022-07-30T06:48:38.426Z,2.60
2022-07-30T06:51:06.723Z,1.10
2022-07-30T06:53:41.668Z,1.00
2022-07-30T06:56:11.104Z,2.67
2022-07-30T06:58:39.372Z,1.17
2022-07-30T07:01:11.106Z,0.93
2022-07-30T07:03:40.737Z,0.77
2022-07-30T07:06:09.313Z,1.70
2022-07-30T07:08:38.203Z,0.87
2022-07-30T07:11:06.530Z,0.97
2022-07-30T07:13:34.787Z,0.90
2022-07-30T07:16:03.329Z,1.03
2022-07-30T07:18:33.081Z,0.83
2022-07-30T07:21:01.371Z,0.67
2022-07-30T07:23:41.556Z,1.73
2022-07-30T07:26:11.559Z,0.47
2022-07-30T07:28:40.848Z,0.70
2022-07-30T07:31:09.265Z,1.07
2022-07-30T07:33:39.450Z,1.00
2022-07-30T07:36:07.971Z,0.77
2022-07-30T07:38:36.707Z,1.63
2022-07-30T07:41:05.449Z,1.07
2022-07-30T07:43:33.766Z,0.80
2022-07-30T07:46:02.487Z,0.40
2022-07-30T07:48:30.860Z,0.47
2022-07-30T07:51:00.929Z,0.57
2022-07-30T07:53:29.353Z,1.13
2022-07-30T07:55:57.780Z,1.47
2022-07-30T07:58:26.762Z,0.50
2022-07-30T08:00:55.415Z,0.47
2022-07-30T08:03:23.971Z,0.60
2022-07-30T08:06:02.024Z,1.13
2022-07-30T08:08:37.155Z,2.37
2022-07-30T08:11:06.354Z,1.23
2022-07-30T08:13:49.061Z,0.50
2022-07-30T08:16:20.651Z,0.73
2022-07-30T08:18:48.989Z,0.53
2022-07-30T08:21:17.259Z,0.60
2022-07-30T08:23:46.886Z,1.00
2022-07-30T08:26:15.177Z,0.30
2022-07-30T08:28:45.676Z,0.90
2022-07-30T08:31:14.092Z,0.67
2022-07-30T08:33:42.382Z,0.97
2022-07-30T08:36:10.697Z,1.30
2022-07-30T08:38:39.454Z,1.23
2022-07-30T08:41:09.113Z,0.70
2022-07-30T08:43:37.561Z,0.50
2022-07-30T08:46:06.876Z,0.40
2022-07-30T08:48:35.159Z,0.70
2022-07-30T08:51:03.570Z,0.73
2022-07-30T08:53:31.841Z,0.80
2022-07-30T08:56:00.138Z,1.60
2022-07-30T08:58:31.369Z,0.40
2022-07-30T09:00:59.678Z,1.03
2022-07-30T09:03:28.001Z,0.37
2022-07-30T09:05:56.381Z,0.57
2022-07-30T09:08:24.667Z,0.60
2022-07-30T09:10:53.630Z,0.60
2022-07-30T09:13:25.290Z,0.33
2022-07-30T09:15:54.931Z,0.77
2022-07-30T09:18:29.798Z,0.30
2022-07-30T09:20:58.069Z,0.50
2022-07-30T09:23:26.308Z,2.17
2022-07-30T09:25:54.616Z,2.13
2022-07-30T09:28:29.272Z,0.43
2022-07-30T09:30:58.940Z,0.40
2022-07-30T09:33:34.128Z,0.60
2022-07-30T09:36:02.779Z,0.40
2022-07-30T09:38:31.974Z,0.40
2022-07-30T09:41:08.010Z,0.50
2022-07-30T09:43:46.122Z,0.83
2022-07-30T09:46:15.750Z,2.47
2022-07-30T09:48:44.792Z,0.50
2022-07-30T09:51:15.867Z,0.30
2022-07-30T09:53:57.014Z,1.37
2022-07-30T09:56:26.564Z,0.97
2022-07-30T09:58:58.364Z,1.83
2022-07-30T10:01:49.492Z,1.10
2022-07-30T10:04:24.718Z,1.07
2022-07-30T10:06:53.008Z,1.03
2022-07-30T10:09:27.841Z,1.23
2022-07-30T10:11:56.600Z,0.77
2022-07-30T10:14:32.051Z,0.87
2022-07-30T10:17:02.920Z,2.63
2022-07-30T10:19:40.163Z,1.07
2022-07-30T10:22:10.416Z,1.30
2022-07-30T10:24:39.909Z,1.20
2022-07-30T10:27:08.276Z,1.63
2022-07-30T10:29:36.664Z,3.07
2022-07-30T10:32:12.256Z,1.27
2022-07-30T10:34:42.446Z,3.10
2022-07-30T10:37:11.009Z,1.63
2022-07-30T10:39:41.363Z,3.17
2022-07-30T10:42:13.179Z,2.30
2022-07-30T10:44:55.684Z,1.77
2022-07-30T10:47:29.807Z,3.77
2022-07-30T10:50:10.556Z,3.17
2022-07-30T10:52:46.483Z,3.07
2022-07-30T10:55:15.958Z,2.07
2022-07-30T10:58:01.950Z,2.97
2022-07-30T11:00:30.326Z,4.70
2022-07-30T11:03:16.290Z,3.10
2022-07-30T11:05:46.019Z,3.47
2022-07-30T11:08:36.840Z,3.27
2022-07-30T11:11:19.878Z,3.23
2022-07-30T11:13:55.155Z,5.00
2022-07-30T11:16:23.695Z,3.90
2022-07-30T11:19:55.474Z,3.70
2022-07-30T11:22:19.064Z,3.93
2022-07-30T11:24:48.868Z,3.83
2022-07-30T11:27:32.259Z,3.17
2022-07-30T11:30:04.720Z,3.83
2022-07-30T11:32:33.466Z,5.07
2022-07-30T11:35:14.713Z,5.47
2022-07-30T11:38:02.275Z,6.87
2022-07-30T11:40:30.829Z,8.63
2022-07-30T11:43:21.836Z,7.97
2022-07-30T11:46:06.748Z,9.50
2022-07-30T11:48:35.166Z,12.37
2022-07-30T11:51:05.204Z,10.97
2022-07-30T11:53:33.531Z,8.83
2022-07-30T11:56:03.337Z,13.03
2022-07-30T11:58:32.229Z,12.53
2022-07-30T12:01:01.775Z,11.20
2022-07-30T12:03:31.864Z,14.10
2022-07-30T12:06:06.334Z,9.93
2022-07-30T12:08:41.348Z,10.47
2022-07-30T12:11:09.709Z,12.27
2022-07-30T12:13:43.914Z,10.47
2022-07-30T12:16:13.263Z,10.83
2022-07-30T12:18:41.575Z,11.80
2022-07-30T12:21:15.631Z,13.97
2022-07-30T12:23:44.048Z,7.87
2022-07-30T12:26:21.734Z,10.63
2022-07-30T12:28:50.073Z,10.67
2022-07-30T12:31:18.358Z,9.53
2022-07-30T12:33:47.579Z,9.17
2022-07-30T12:36:27.025Z,8.30
2022-07-30T12:38:56.686Z,12.37
2022-07-30T12:41:24.964Z,12.70
2022-07-30T12:43:53.915Z,9.90
2022-07-30T12:46:22.996Z,10.10
2022-07-30T12:48:55.173Z,10.77
2022-07-30T12:51:24.212Z,10.17
2022-07-30T12:53:54.019Z,9.53
2022-07-30T12:56:22.660Z,8.63
2022-07-30T12:58:50.960Z,7.40
2022-07-30T13:01:19.266Z,7.80
2022-07-30T13:03:47.625Z,6.60
2022-07-30T13:06:16.613Z,7.77
2022-07-30T13:08:48.391Z,5.93
2022-07-30T13:11:18.112Z,9.00
2022-07-30T13:13:46.415Z,7.70
2022-07-30T13:16:14.813Z,7.60
2022-07-30T13:18:43.163Z,10.50
2022-07-30T13:21:11.562Z,7.17
2022-07-30T13:23:39.901Z,8.50
2022-07-30T13:26:08.566Z,9.57
2022-07-30T13:28:38.218Z,6.57
2022-07-30T13:31:07.586Z,7.63
2022-07-30T13:33:35.899Z,6.67
2022-07-30T13:36:04.153Z,7.37
2022-07-30T13:38:32.483Z,5.80
2022-07-30T13:41:02.935Z,6.20
2022-07-30T13:43:33.687Z,7.47
2022-07-30T13:46:04.048Z,7.23
2022-07-30T13:48:32.326Z,6.20
2022-07-30T13:51:01.604Z,7.67
2022-07-30T13:53:29.951Z,7.73
2022-07-30T13:55:59.424Z,4.80
2022-07-30T13:58:27.821Z,4.13
2022-07-30T14:00:56.555Z,4.53
2022-07-30T14:03:26.184Z,5.07
2022-07-30T14:05:54.679Z,5.37
2022-07-30T14:08:23.240Z,3.20
2022-07-30T14:10:51.635Z,5.20
2022-07-30T14:13:21.101Z,5.63
2022-07-30T14:15:50.091Z,3.50
2022-07-30T14:18:18.479Z,6.33
2022-07-30T14:20:49.500Z,4.20
2022-07-30T14:23:18.158Z,3.43
2022-07-30T14:25:46.574Z,4.67
2022-07-30T14:28:15.206Z,3.03
2022-07-30T14:30:43.671Z,2.93
2022-07-30T14:33:12.150Z,3.47
2022-07-30T14:35:40.662Z,6.83
2022-07-30T14:38:10.527Z,4.70
2022-07-30T14:40:39.006Z,3.27
2022-07-30T14:43:07.516Z,4.53
2022-07-30T14:45:36.576Z,4.87
2022-07-30T14:48:04.966Z,11.17
2022-07-30T14:50:33.291Z,4.57
2022-07-30T14:53:01.627Z,5.73
2022-07-30T14:55:31.244Z,3.53
2022-07-30T14:57:59.582Z,7.10
2022-07-30T15:00:31.858Z,3.80
2022-07-30T15:03:02.907Z,3.97
2022-07-30T15:05:31.265Z,5.83
2022-07-30T15:07:59.517Z,4.73
2022-07-30T15:10:27.957Z,4.47
2022-07-30T15:12:57.668Z,7.13
2022-07-30T15:15:26.768Z,4.33
2022-07-30T15:17:58.174Z,5.47
2022-07-30T15:20:26.445Z,2.90
2022-07-30T15:22:54.722Z,4.80
2022-07-30T15:25:23.789Z,4.10
2022-07-30T15:27:52.744Z,3.40
2022-07-30T15:30:24.760Z,2.60
2022-07-30T15:32:54.322Z,3.10
2022-07-30T15:35:22.744Z,3.67
2022-07-30T15:37:51.095Z,3.07
2022-07-30T15:40:19.698Z,3.63
2022-07-30T15:42:47.977Z,3.63
2022-07-30T15:45:18.037Z,5.27
2022-07-30T15:47:48.232Z,3.33
2022-07-30T15:50:17.298Z,5.67
2022-07-30T15:52:45.609Z,5.93
2022-07-30T15:55:13.892Z,2.53
2022-07-30T15:57:43.315Z,5.57
2022-07-30T16:00:12.550Z,6.23
2022-07-30T16:02:41.305Z,4.17
2022-07-30T16:05:13.973Z,4.73
2022-07-30T16:07:42.753Z,4.23
2022-07-30T16:10:11.257Z,4.83
2022-07-30T16:12:39.663Z,5.47
2022-07-30T16:15:08.570Z,4.90
2022-07-30T16:17:37.103Z,5.13
2022-07-30T16:20:06.192Z,6.70
2022-07-30T16:22:36.457Z,3.47
2022-07-30T16:25:04.786Z,5.13
2022-07-30T16:27:33.091Z,3.77
2022-07-30T16:30:01.416Z,4.50
2022-07-30T16:32:29.897Z,4.77
2022-07-30T16:34:58.194Z,6.57
2022-07-30T16:37:26.495Z,5.43
2022-07-30T16:39:56.216Z,5.17
2022-07-30T16:42:24.489Z,6.93
2022-07-30T16:44:52.801Z,5.03
2022-07-30T16:47:21.081Z,5.60
2022-07-30T16:49:49.374Z,9.73
2022-07-30T16:52:18.344Z,3.77
2022-07-30T16:54:46.732Z,6.17
2022-07-30T16:57:16.783Z,5.47
2022-07-30T16:59:45.099Z,6.50
2022-07-30T17:02:13.392Z,7.17
2022-07-30T17:04:41.686Z,6.40
2022-07-30T17:07:10.094Z,6.73
2022-07-30T17:09:38.378Z,8.07
2022-07-30T17:12:11.823Z,7.00
2022-07-30T17:14:42.254Z,7.83
2022-07-30T17:17:14.176Z,7.03
2022-07-30T17:19:42.998Z,10.27
2022-07-30T17:22:11.313Z,6.17
2022-07-30T17:24:39.898Z,8.03
2022-07-30T17:27:08.228Z,7.10
2022-07-30T17:29:48.371Z,6.77
2022-07-30T17:32:20.096Z,8.23
2022-07-30T17:34:48.406Z,6.77
2022-07-30T17:37:16.724Z,6.07
2022-07-30T17:40:26.733Z,6.17
2022-07-30T17:42:33.294Z,8.67
2022-07-30T17:45:01.986Z,4.60
2022-07-30T17:47:31.596Z,8.27
2022-07-30T17:50:00.209Z,5.40
2022-07-30T17:52:28.698Z,6.63
2022-07-30T17:54:56.975Z,8.20
2022-07-30T17:57:25.255Z,5.57
2022-07-30T17:59:53.710Z,4.77
2022-07-30T18:02:27.615Z,9.60
2022-07-30T18:04:58.856Z,6.43
2022-07-30T18:07:27.124Z,5.90
2022-07-30T18:09:55.394Z,5.90
2022-07-30T18:12:23.706Z,7.03
2022-07-30T18:14:52.498Z,3.87
2022-07-30T18:17:20.784Z,5.63
2022-07-30T18:19:49.061Z,3.40
2022-07-30T18:22:28.187Z,6.67
2022-07-30T18:25:00.387Z,4.87
2022-07-30T18:27:29.855Z,5.23
2022-07-30T18:29:58.231Z,4.23
2022-07-30T18:32:26.558Z,4.27
2022-07-30T18:34:54.848Z,5.43
2022-07-30T18:37:24.495Z,4.63
2022-07-30T18:39:52.824Z,3.00
2022-07-30T18:42:21.120Z,2.83
2022-07-30T18:44:52.115Z,5.20
2022-07-30T18:47:20.507Z,5.37
2022-07-30T18:49:50.177Z,8.57
2022-07-30T18:52:18.564Z,10.63
2022-07-30T18:54:48.210Z,9.67
2022-07-30T18:57:16.531Z,11.87
2022-07-30T18:59:44.795Z,11.90
2022-07-30T19:02:13.090Z,11.70
2022-07-30T19:04:41.334Z,10.57
2022-07-30T19:07:09.609Z,11.30
2022-07-30T19:09:37.947Z,10.80
2022-07-30T19:12:07.872Z,10.07
2022-07-30T19:14:36.137Z,10.57
2022-07-30T19:17:13.955Z,9.23
2022-07-30T19:19:42.594Z,8.17
2022-07-30T19:22:10.967Z,10.23
2022-07-30T19:24:39.274Z,7.63
2022-07-30T19:27:13.736Z,6.07
2022-07-30T19:29:43.067Z,4.57
2022-07-30T19:32:11.365Z,4.57
2022-07-30T19:34:39.682Z,3.00
2022-07-30T19:37:07.967Z,3.23
2022-07-30T19:39:36.255Z,1.23
2022-07-30T19:42:04.835Z,3.70
2022-07-30T19:44:37.869Z,1.70
2022-07-30T19:47:08.892Z,2.40
2022-07-30T19:49:40.534Z,1.53
2022-07-30T19:52:23.305Z,1.83
2022-07-30T19:54:53.772Z,3.20
2022-07-30T19:57:22.063Z,1.50
2022-07-30T19:59:59.885Z,4.40
2022-07-30T20:02:28.602Z,7.57
2022-07-30T20:04:57.107Z,7.50
2022-07-30T20:07:27.512Z,3.87
2022-07-30T20:09:56.171Z,6.40
2022-07-30T20:12:24.506Z,3.67
2022-07-30T20:14:56.260Z,6.47
2022-07-30T20:17:24.778Z,5.70
2022-07-30T20:19:59.491Z,5.30
2022-07-30T20:22:27.875Z,4.20
2022-07-30T20:24:56.189Z,6.20
2022-07-30T20:27:36.019Z,4.90
2022-07-30T20:30:07.579Z,3.90
2022-07-30T20:32:36.196Z,4.20
2022-07-30T20:35:04.591Z,3.17
2022-07-30T20:37:33.572Z,7.40
2022-07-30T20:40:22.289Z,4.73
2022-07-30T20:42:51.370Z,5.97
2022-07-30T20:45:24.424Z,2.83
2022-07-30T20:47:56.386Z,4.17
2022-07-30T20:50:30.875Z,3.27
2022-07-30T20:52:59.821Z,3.40
2022-07-30T20:55:28.160Z,5.20
2022-07-30T20:58:06.176Z,10.23
2022-07-30T21:00:37.854Z,9.87
2022-07-30T21:03:06.570Z,7.13
2022-07-30T21:05:43.064Z,4.03
2022-07-30T21:08:12.173Z,3.53
2022-07-30T21:10:44.420Z,4.57
2022-07-30T21:13:13.786Z,5.67
2022-07-30T21:15:45.395Z,3.20
2022-07-30T21:18:29.811Z,3.67
2022-07-30T21:20:58.992Z,3.47
2022-07-30T21:23:29.047Z,2.00
2022-07-30T21:26:00.524Z,1.87
2022-07-30T21:28:35.179Z,1.33
2022-07-30T21:31:07.001Z,4.63
2022-07-30T21:33:35.813Z,4.37
2022-07-30T21:36:04.134Z,2.70
2022-07-30T21:38:34.448Z,5.97
2022-07-30T21:41:02.740Z,24.80
2022-07-30T21:43:39.392Z,22.67
2022-07-30T21:46:10.575Z,25.77
2022-07-30T21:48:39.656Z,29.77
2022-07-30T21:51:09.535Z,20.27
2022-07-30T21:53:44.922Z,12.50
2022-07-30T21:56:14.140Z,12.17
2022-07-30T21:58:42.836Z,10.10
2022-07-30T22:01:17.491Z,11.73
2022-07-30T22:04:03.195Z,10.33
2022-07-30T22:06:34.931Z,12.90
2022-07-30T22:09:18.350Z,12.80
2022-07-30T22:11:51.666Z,11.87
2022-07-30T22:14:20.498Z,12.87
2022-07-30T22:16:50.172Z,7.07
2022-07-30T22:19:20.631Z,11.30
2022-07-30T22:21:50.800Z,8.67
2022-07-30T22:24:28.662Z,8.80
2022-07-30T22:29:48.911Z,5.67
2022-07-30T22:32:18.843Z,7.57
2022-07-30T22:34:47.223Z,11.47
2022-07-30T22:37:20.972Z,8.13
2022-07-30T22:39:50.566Z,8.33
2022-07-30T22:42:24.583Z,6.37
2022-07-30T22:44:54.891Z,5.27
2022-07-30T22:47:50.693Z,5.57
2022-07-30T22:50:14.903Z,5.10
2022-07-30T22:52:55.687Z,5.53
2022-07-30T22:55:40.719Z,5.17
2022-07-30T22:58:09.581Z,3.90
2022-07-30T23:00:39.086Z,3.83
2022-07-30T23:03:08.883Z,4.17
2022-07-30T23:05:37.277Z,6.13
2022-07-30T23:08:08.428Z,12.73
2022-07-30T23:10:36.861Z,6.53
2022-07-30T23:12:28.742Z,6.30
2022-07-30T23:13:05.250Z,5.13
2022-07-30T23:15:33.847Z,4.33
2022-07-30T23:18:04.101Z,4.83
2022-07-30T23:20:34.140Z,4.57
2022-07-30T23:23:03.019Z,4.80
2022-07-30T23:25:38.430Z,4.47
2022-07-30T23:28:07.485Z,4.03
2022-07-30T23:30:35.785Z,2.90
2022-07-30T23:33:04.055Z,3.27
2022-07-30T23:35:33.679Z,5.07
2022-07-30T23:38:02.177Z,4.97
2022-07-30T23:40:30.896Z,13.97
2022-07-30T23:42:59.240Z,10.53
2022-07-30T23:45:27.491Z,9.70
2022-07-30T23:48:02.330Z,11.83
2022-07-30T23:50:31.749Z,8.60
2022-07-30T23:53:01.387Z,10.57
2022-07-30T23:55:29.717Z,5.50
2022-07-30T23:57:57.994Z,8.80
